Time;durP1;ratioP1;P1;durP2;ratioP2;P2;SDS_P1;SDS_P2;PMS_P1;PMS_P2;Temp;Humidity;BMP_temperature;BMP_pressure;BME280_temperature;BME280_humidity;BME280_pressure;Samples;Min_cycle;Max_cycle;Signal;HPM_P1;HPM_P2
2024/02/03 00:01:45;;;;;;;2.63;1.60;;;21.00;53.60;;;;;;5072836;28;20194;-70
2024/02/03 00:04:11;;;;;;;2.60;1.60;;;21.00;53.60;;;;;;5072857;28;20250;-70
2024/02/03 00:06:36;;;;;;;1.70;1.50;;;21.00;53.60;;;;;;5072800;28;20202;-70
2024/02/03 00:09:05;;;;;;;3.50;1.87;;;20.90;53.50;;;;;;5072756;28;20253;-68
2024/02/03 00:11:31;;;;;;;2.40;1.40;;;21.00;53.60;;;;;;5072726;28;20290;-70
2024/02/03 00:13:57;;;;;;;2.77;1.87;;;20.90;53.60;;;;;;5072723;28;20848;-70
2024/02/03 00:16:23;;;;;;;3.60;1.60;;;20.90;53.60;;;;;;5072670;28;20444;-71
2024/02/03 00:18:49;;;;;;;2.40;1.63;;;21.00;53.60;;;;;;5053773;28;20205;-70
2024/02/03 00:21:15;;;;;;;2.70;1.70;;;20.90;53.60;;;;;;5072161;28;20432;-70
2024/02/03 00:23:46;;;;;;;2.63;1.70;;;20.90;53.60;;;;;;5072515;28;20166;-70
2024/02/03 00:26:12;;;;;;;2.33;1.50;;;20.90;53.60;;;;;;5072539;28;20388;-70
2024/02/03 00:28:38;;;;;;;3.40;2.10;;;20.90;53.60;;;;;;5072369;28;20423;-70
2024/02/03 00:31:04;;;;;;;2.90;1.80;;;20.90;53.60;;;;;;5072358;28;20448;-70
2024/02/03 00:33:30;;;;;;;2.40;1.63;;;20.90;53.60;;;;;;5072404;28;20171;-70
2024/02/03 00:35:56;;;;;;;1.87;1.30;;;20.90;53.60;;;;;;5054189;28;20424;-71
2024/02/03 00:38:21;;;;;;;2.17;1.50;;;20.90;53.60;;;;;;5072282;28;20649;-70
2024/02/03 00:40:47;;;;;;;4.30;1.60;;;20.90;53.60;;;;;;5072098;28;20463;-70
2024/02/03 00:43:16;;;;;;;2.73;1.73;;;20.90;53.60;;;;;;5072159;28;20405;-70
2024/02/03 00:45:44;;;;;;;2.50;1.77;;;20.90;53.60;;;;;;5072124;28;20177;-70
2024/02/03 00:48:11;;;;;;;1.93;1.50;;;21.00;53.70;;;;;;5072089;28;20477;-68
2024/02/03 00:50:36;;;;;;;1.53;1.30;;;20.90;53.60;;;;;;5071928;28;21101;-70
2024/02/03 00:53:02;;;;;;;2.70;1.60;;;20.90;53.60;;;;;;5072187;28;20531;-70
2024/02/03 00:55:28;;;;;;;2.97;2.10;;;20.90;53.60;;;;;;5054365;28;20265;-70
2024/02/03 00:57:54;;;;;;;1.93;1.50;;;20.90;53.60;;;;;;5071834;28;20963;-71
2024/02/03 01:00:23;;;;;;;1.90;1.27;;;20.90;53.60;;;;;;5071719;28;20471;-67
2024/02/03 01:02:49;;;;;;;2.60;1.40;;;20.90;53.60;;;;;;5071754;28;20668;-69
2024/02/03 01:05:15;;;;;;;1.60;1.40;;;20.90;53.60;;;;;;5071727;28;20404;-70
2024/02/03 01:07:40;;;;;;;1.50;1.20;;;20.90;53.60;;;;;;5071670;28;20413;-72
2024/02/03 01:10:06;;;;;;;2.73;1.70;;;20.90;53.60;;;;;;5071472;28;20574;-70
2024/02/03 01:12:32;;;;;;;2.60;1.40;;;20.90;53.60;;;;;;5071516;28;20265;-70
2024/02/03 01:14:58;;;;;;;2.83;1.47;;;20.90;53.60;;;;;;5071577;28;20408;-70
2024/02/03 01:17:24;;;;;;;2.30;1.53;;;20.90;53.60;;;;;;5071308;28;20190;-71
2024/02/03 01:19:50;;;;;;;1.80;1.27;;;20.90;53.60;;;;;;5071188;28;20206;-71
2024/02/03 01:22:16;;;;;;;2.50;1.63;;;20.90;53.60;;;;;;5071169;28;20173;-70
2024/02/03 01:24:41;;;;;;;2.57;1.40;;;20.90;53.60;;;;;;5071311;28;20408;-70
2024/02/03 01:27:07;;;;;;;3.27;1.70;;;20.90;53.60;;;;;;5071284;28;20419;-70
2024/02/03 01:29:33;;;;;;;2.07;1.30;;;20.90;53.60;;;;;;5071266;28;20174;-71
2024/02/03 01:31:59;;;;;;;1.80;1.43;;;20.90;53.60;;;;;;5070684;28;20255;-70
2024/02/03 01:34:24;;;;;;;2.10;1.40;;;20.90;53.70;;;;;;5071064;28;20831;-68
2024/02/03 01:36:50;;;;;;;2.10;1.77;;;20.90;53.60;;;;;;5070942;28;20232;-70
2024/02/03 01:39:16;;;;;;;1.90;1.30;;;20.90;53.60;;;;;;5070919;28;20201;-70
2024/02/03 01:41:41;;;;;;;2.10;1.53;;;20.90;53.60;;;;;;5070859;28;20195;-70
2024/02/03 01:44:07;;;;;;;4.10;1.80;;;20.90;53.60;;;;;;5070876;28;20254;-70
2024/02/03 01:46:34;;;;;;;2.20;1.53;;;20.90;53.60;;;;;;5053039;28;20201;-70
2024/02/03 01:48:59;;;;;;;2.27;1.20;;;20.90;53.60;;;;;;5070812;28;20170;-69
2024/02/03 01:51:27;;;;;;;5.43;2.30;;;20.90;53.60;;;;;;5070675;28;20444;-70
2024/02/03 01:53:55;;;;;;;1.83;1.40;;;20.90;53.70;;;;;;5070646;28;20162;-70
2024/02/03 01:56:21;;;;;;;2.70;1.57;;;20.90;53.70;;;;;;5070715;28;20495;-71
2024/02/03 01:58:47;;;;;;;2.00;1.47;;;20.90;53.70;;;;;;5070446;28;20783;-71
2024/02/03 02:01:14;;;;;;;1.73;1.57;;;20.90;53.70;;;;;;5070534;28;20428;-71
2024/02/03 02:03:40;;;;;;;1.90;1.40;;;20.80;53.60;;;;;;5070522;28;20416;-71
2024/02/03 02:06:06;;;;;;;1.97;1.47;;;20.80;53.60;;;;;;5070491;28;20404;-70
2024/02/03 02:08:34;;;;;;;2.50;1.43;;;20.80;53.60;;;;;;5070458;28;20908;-70
2024/02/03 02:11:00;;;;;;;1.77;1.50;;;20.80;53.60;;;;;;5052412;28;20251;-71
2024/02/03 02:13:26;;;;;;;1.70;1.17;;;20.80;53.60;;;;;;5070363;28;21057;-70
2024/02/03 02:15:52;;;;;;;2.20;1.37;;;20.80;53.60;;;;;;5070256;28;20582;-71
2024/02/03 02:18:18;;;;;;;1.77;1.47;;;20.80;53.60;;;;;;5070304;28;20396;-71
2024/02/03 02:20:44;;;;;;;4.70;1.60;;;20.80;53.60;;;;;;5070073;28;20464;-71
2024/02/03 02:23:11;;;;;;;1.87;1.43;;;20.80;53.60;;;;;;5052535;28;20436;-71
2024/02/03 02:25:37;;;;;;;2.63;1.40;;;20.80;53.60;;;;;;5070163;28;20407;-69
2024/02/03 02:28:03;;;;;;;1.50;1.30;;;20.80;53.60;;;;;;5070161;28;20181;-71
2024/02/03 02:30:29;;;;;;;2.20;1.60;;;20.80;53.60;;;;;;5051996;28;20452;-71
2024/02/03 02:32:55;;;;;;;2.43;1.47;;;20.80;53.60;;;;;;5070099;28;20412;-71
2024/02/03 02:35:20;;;;;;;2.10;1.70;;;20.80;53.60;;;;;;5070096;28;20178;-71
2024/02/03 02:37:46;;;;;;;2.17;1.50;;;20.80;53.60;;;;;;5070053;28;20173;-70
2024/02/03 02:40:12;;;;;;;4.13;1.40;;;20.80;53.60;;;;;;5070098;28;20223;-70
2024/02/03 02:42:38;;;;;;;2.27;1.50;;;20.80;53.60;;;;;;5069193;28;20409;-71
2024/02/03 02:45:04;;;;;;;1.97;1.77;;;20.80;53.60;;;;;;5070000;28;20633;-71
2024/02/03 02:47:30;;;;;;;1.40;1.13;;;20.80;53.60;;;;;;5069960;28;20170;-70
2024/02/03 02:49:56;;;;;;;1.80;1.37;;;20.80;53.60;;;;;;5069805;28;20584;-71
2024/02/03 02:52:21;;;;;;;2.40;1.17;;;20.80;53.60;;;;;;5069892;28;20217;-71
2024/02/03 02:54:47;;;;;;;1.70;1.30;;;20.80;53.60;;;;;;5069823;28;20174;-71
2024/02/03 02:57:13;;;;;;;1.60;1.40;;;20.80;53.60;;;;;;5069798;28;20174;-70
2024/02/03 02:59:39;;;;;;;2.20;1.73;;;20.80;53.60;;;;;;5069734;28;20657;-71
2024/02/03 03:02:05;;;;;;;1.43;1.27;;;20.80;53.60;;;;;;5069638;28;20247;-71
2024/02/03 03:04:31;;;;;;;1.97;1.30;;;20.80;53.60;;;;;;5069858;28;20420;-71
2024/02/03 03:06:57;;;;;;;1.30;1.20;;;20.80;53.60;;;;;;5069764;28;20175;-71
2024/02/03 03:09:23;;;;;;;2.30;1.40;;;20.80;53.60;;;;;;5069709;28;20421;-70
2024/02/03 03:11:48;;;;;;;2.60;1.67;;;20.80;53.60;;;;;;5069653;28;20730;-71
2024/02/03 03:14:14;;;;;;;1.60;1.20;;;20.80;53.70;;;;;;5069671;28;20657;-71
2024/02/03 03:16:40;;;;;;;2.20;1.30;;;20.80;53.60;;;;;;5069629;28;20593;-69
2024/02/03 03:19:06;;;;;;;2.20;1.60;;;20.80;53.60;;;;;;5069599;28;20639;-70
2024/02/03 03:21:31;;;;;;;1.60;1.47;;;20.80;53.60;;;;;;5051456;28;20468;-70
2024/02/03 03:23:57;;;;;;;1.70;1.30;;;20.80;53.60;;;;;;5069549;28;20167;-70
2024/02/03 03:26:22;;;;;;;1.93;1.60;;;20.80;53.60;;;;;;5069575;28;20717;-69
2024/02/03 03:28:48;;;;;;;1.40;1.00;;;20.80;53.60;;;;;;5069523;28;20177;-71
2024/02/03 03:31:14;;;;;;;1.50;1.17;;;20.80;53.60;;;;;;5069393;28;20203;-71
2024/02/03 03:33:39;;;;;;;2.47;1.57;;;20.80;53.70;;;;;;5069512;28;20182;-70
2024/02/03 03:36:05;;;;;;;1.97;1.40;;;20.80;53.60;;;;;;5069668;28;20189;-71
2024/02/03 03:38:31;;;;;;;2.67;1.30;;;20.80;53.70;;;;;;5069435;28;20251;-70
2024/02/03 03:40:57;;;;;;;1.97;1.60;;;20.80;53.60;;;;;;5069366;28;20277;-70
2024/02/03 03:43:22;;;;;;;1.30;1.10;;;20.80;53.70;;;;;;5069693;28;20174;-70
2024/02/03 03:45:48;;;;;;;1.40;1.20;;;20.80;53.60;;;;;;5069404;28;20891;-70
2024/02/03 03:48:14;;;;;;;1.87;1.30;;;20.80;53.60;;;;;;5069369;28;20170;-71
2024/02/03 03:50:40;;;;;;;1.60;1.27;;;20.70;53.60;;;;;;5069250;28;20448;-70
2024/02/03 03:53:06;;;;;;;1.27;1.17;;;20.80;53.70;;;;;;5069406;28;20463;-70
2024/02/03 03:55:31;;;;;;;1.50;1.00;;;20.80;53.70;;;;;;5072733;28;20170;-70
2024/02/03 03:57:57;;;;;;;3.20;1.47;;;20.80;53.60;;;;;;5072934;28;20190;-68
2024/02/03 04:00:22;;;;;;;1.40;1.20;;;20.80;53.70;;;;;;5072740;28;20780;-70
2024/02/03 04:02:48;;;;;;;2.00;1.23;;;20.70;53.60;;;;;;5073136;28;20247;-69
2024/02/03 04:05:14;;;;;;;2.07;1.10;;;20.80;53.60;;;;;;5072854;28;20265;-70
2024/02/03 04:07:39;;;;;;;2.33;1.30;;;20.70;53.60;;;;;;5072963;28;20227;-70
2024/02/03 04:10:05;;;;;;;1.87;1.20;;;20.80;53.60;;;;;;5072666;28;20167;-71
2024/02/03 04:12:31;;;;;;;2.30;1.50;;;20.70;53.60;;;;;;5072722;28;20603;-71
2024/02/03 04:14:56;;;;;;;1.67;1.27;;;20.80;53.60;;;;;;5072701;28;20416;-71
2024/02/03 04:17:22;;;;;;;2.37;1.83;;;20.80;53.70;;;;;;5072527;28;20259;-70
2024/02/03 04:19:48;;;;;;;1.50;1.20;;;20.80;53.70;;;;;;5072651;28;20198;-70
2024/02/03 04:22:13;;;;;;;1.83;1.30;;;20.70;54.20;;;;;;5072527;28;20170;-70
2024/02/03 04:24:39;;;;;;;1.50;1.20;;;20.80;53.70;;;;;;5072744;28;20171;-70
2024/02/03 04:27:05;;;;;;;1.50;1.10;;;20.80;53.70;;;;;;5072341;28;20190;-70
2024/02/03 04:29:31;;;;;;;1.50;1.20;;;20.80;53.70;;;;;;5072450;28;20949;-70
2024/02/03 04:31:57;;;;;;;1.43;1.10;;;20.80;53.60;;;;;;5072232;28;20432;-70
2024/02/03 04:34:22;;;;;;;1.73;1.33;;;20.70;53.60;;;;;;5072300;28;20672;-69
2024/02/03 04:36:48;;;;;;;1.60;1.27;;;20.70;53.60;;;;;;5072272;28;20170;-70
2024/02/03 04:39:14;;;;;;;1.80;1.30;;;20.70;53.60;;;;;;5072081;28;20204;-70
2024/02/03 04:41:40;;;;;;;1.47;1.10;;;20.70;53.60;;;;;;5072136;28;20194;-70
2024/02/03 04:44:05;;;;;;;1.53;1.20;;;20.70;53.60;;;;;;5072050;28;20412;-69
2024/02/03 04:46:31;;;;;;;1.03;0.90;;;20.70;53.60;;;;;;5071987;28;20174;-70
2024/02/03 04:48:57;;;;;;;1.50;1.10;;;20.70;53.60;;;;;;5072327;28;20554;-70
2024/02/03 04:51:23;;;;;;;3.33;1.50;;;20.70;53.60;;;;;;5071985;28;20429;-71
2024/02/03 04:53:48;;;;;;;2.07;1.37;;;20.70;53.60;;;;;;5071895;28;20205;-70
2024/02/03 04:56:14;;;;;;;1.30;0.93;;;20.70;53.60;;;;;;5071810;28;20740;-70
2024/02/03 04:58:39;;;;;;;1.30;1.00;;;20.70;53.60;;;;;;5071726;28;20174;-71
2024/02/03 05:01:05;;;;;;;2.17;1.20;;;20.70;53.60;;;;;;5071618;28;20259;-70
2024/02/03 05:03:35;;;;;;;3.43;1.57;;;20.70;53.60;;;;;;5071672;28;20178;-70
2024/02/03 05:06:04;;;;;;;1.27;0.97;;;20.70;53.60;;;;;;5070954;28;20154;-70
2024/02/03 05:08:31;;;;;;;1.30;1.07;;;20.70;53.60;;;;;;5071678;28;20409;-70
2024/02/03 05:10:57;;;;;;;1.70;1.20;;;20.70;53.60;;;;;;5071609;28;20436;-70
2024/02/03 05:13:23;;;;;;;4.33;1.20;;;20.70;53.60;;;;;;5071561;28;20415;-70
2024/02/03 05:15:48;;;;;;;1.33;1.07;;;20.70;53.70;;;;;;5071455;28;20939;-70
2024/02/03 05:18:14;;;;;;;1.30;1.20;;;20.70;53.60;;;;;;5071388;28;20177;-70
2024/02/03 05:20:40;;;;;;;2.10;1.10;;;20.70;53.60;;;;;;5071311;28;20198;-70
2024/02/03 05:23:05;;;;;;;2.10;1.70;;;20.70;53.60;;;;;;5071400;28;20174;-70
2024/02/03 05:25:31;;;;;;;1.43;1.07;;;20.70;53.60;;;;;;5071614;28;20227;-71
2024/02/03 05:27:56;;;;;;;2.10;1.80;;;20.70;53.60;;;;;;5071315;28;20181;-70
2024/02/03 05:30:22;;;;;;;1.30;1.10;;;20.70;53.60;;;;;;5071155;28;20221;-69
2024/02/03 05:32:48;;;;;;;2.13;1.30;;;20.60;53.60;;;;;;5071453;28;20223;-70
2024/02/03 05:35:13;;;;;;;1.50;1.10;;;20.60;53.60;;;;;;5071123;28;20548;-70
2024/02/03 05:37:39;;;;;;;1.47;1.03;;;20.60;53.60;;;;;;5053401;28;20265;-70
2024/02/03 05:40:05;;;;;;;1.50;1.10;;;20.70;53.70;;;;;;5070954;28;20197;-70
2024/02/03 05:42:31;;;;;;;1.57;1.00;;;20.60;53.60;;;;;;5053230;28;20181;-71
2024/02/03 05:44:57;;;;;;;1.30;1.00;;;20.60;53.60;;;;;;5071234;28;20400;-70
2024/02/03 05:47:23;;;;;;;2.73;1.23;;;20.60;53.60;;;;;;5052879;28;20170;-70
2024/02/03 05:49:49;;;;;;;2.30;1.17;;;20.60;53.60;;;;;;5070774;28;20502;-70
2024/02/03 05:52:14;;;;;;;3.37;1.00;;;20.60;53.60;;;;;;5070832;28;20188;-70
2024/02/03 05:54:40;;;;;;;1.40;1.30;;;20.60;53.60;;;;;;5070808;28;20174;-70
2024/02/03 05:57:10;;;;;;;1.77;1.10;;;20.60;53.60;;;;;;5070776;28;20688;-70
2024/02/03 05:59:35;;;;;;;1.57;1.40;;;20.60;53.60;;;;;;5070839;28;20635;-70
2024/02/03 06:02:01;;;;;;;1.43;1.10;;;20.60;53.60;;;;;;5070571;28;20428;-70
2024/02/03 06:04:26;;;;;;;1.67;1.10;;;20.60;53.60;;;;;;5070533;28;20670;-70
2024/02/03 06:06:52;;;;;;;1.37;1.10;;;20.60;53.60;;;;;;5070644;28;20170;-70
2024/02/03 06:09:17;;;;;;;2.13;1.00;;;20.60;53.60;;;;;;5070508;28;20177;-70
2024/02/03 06:11:43;;;;;;;1.60;1.03;;;20.60;53.60;;;;;;5070399;28;20581;-69
2024/02/03 06:14:09;;;;;;;1.67;1.20;;;20.60;53.60;;;;;;5070738;28;20178;-69
2024/02/03 06:16:34;;;;;;;1.97;1.10;;;20.60;53.60;;;;;;5052248;28;20197;-70
2024/02/03 06:19:00;;;;;;;1.20;1.00;;;20.60;53.60;;;;;;5070378;28;20229;-70
2024/02/03 06:21:25;;;;;;;2.37;1.63;;;20.60;53.60;;;;;;5070296;28;20194;-70
2024/02/03 06:23:51;;;;;;;1.70;0.90;;;20.60;53.60;;;;;;5070707;28;20166;-70
2024/02/03 06:26:16;;;;;;;2.47;1.50;;;20.60;53.60;;;;;;5070392;28;20533;-70
2024/02/03 06:28:42;;;;;;;1.93;1.00;;;20.60;53.60;;;;;;5070263;28;20166;-70
2024/02/03 06:31:08;;;;;;;1.93;1.20;;;20.70;53.70;;;;;;5070174;28;20553;-69
2024/02/03 06:33:33;;;;;;;1.50;1.20;;;20.60;53.60;;;;;;5070272;28;20174;-70
2024/02/03 06:36:00;;;;;;;1.23;1.13;;;20.70;53.70;;;;;;5070202;28;20169;-68
2024/02/03 06:38:29;;;;;;;1.30;1.10;;;20.70;53.70;;;;;;5070182;28;20162;-70
2024/02/03 06:40:55;;;;;;;1.57;1.10;;;20.70;53.70;;;;;;5051844;28;20836;-71
2024/02/03 06:43:21;;;;;;;2.00;1.10;;;20.70;53.70;;;;;;5070143;28;20420;-71
2024/02/03 06:45:47;;;;;;;1.50;1.30;;;20.70;53.70;;;;;;5070080;28;20427;-70
2024/02/03 06:48:12;;;;;;;1.67;1.20;;;20.70;53.70;;;;;;5070074;28;20253;-70
2024/02/03 06:50:38;;;;;;;1.97;1.60;;;20.70;53.70;;;;;;5069952;28;20205;-69
2024/02/03 06:53:05;;;;;;;3.00;1.00;;;20.70;53.70;;;;;;5070087;28;20177;-70
2024/02/03 06:55:30;;;;;;;1.93;1.10;;;20.70;53.60;;;;;;5070014;28;20196;-71
2024/02/03 06:57:56;;;;;;;1.77;0.83;;;20.80;53.70;;;;;;5069853;28;20507;-70
2024/02/03 07:00:22;;;;;;;1.40;1.00;;;20.80;53.70;;;;;;5069823;28;20275;-70
2024/02/03 07:02:48;;;;;;;2.57;1.20;;;20.80;53.60;;;;;;5069955;28;20171;-70
2024/02/03 07:05:14;;;;;;;1.50;1.03;;;20.80;53.60;;;;;;5069946;28;20538;-70
2024/02/03 07:07:39;;;;;;;1.33;1.10;;;20.80;53.60;;;;;;5069869;28;20167;-68
2024/02/03 07:10:06;;;;;;;1.20;1.00;;;20.80;53.60;;;;;;5069785;28;20277;-70
2024/02/03 07:12:31;;;;;;;1.40;1.00;;;20.80;53.50;;;;;;5070118;28;20247;-69
2024/02/03 07:14:57;;;;;;;1.87;1.10;;;20.80;53.50;;;;;;5069745;28;20408;-70
2024/02/03 07:17:23;;;;;;;1.50;1.10;;;20.90;53.60;;;;;;5069723;28;20198;-69
2024/02/03 07:19:48;;;;;;;1.43;1.00;;;20.90;53.50;;;;;;5069674;28;20194;-70
2024/02/03 07:22:14;;;;;;;1.50;1.03;;;20.90;53.50;;;;;;5069739;28;20173;-71
2024/02/03 07:24:39;;;;;;;1.30;1.00;;;20.90;53.50;;;;;;5069969;28;20220;-70
2024/02/03 07:27:05;;;;;;;1.30;1.17;;;20.90;53.50;;;;;;5051637;28;20175;-69
2024/02/03 07:29:31;;;;;;;1.17;0.90;;;20.90;53.50;;;;;;5071618;28;20261;-70
2024/02/03 07:32:01;;;;;;;1.33;1.10;;;21.00;53.50;;;;;;5073419;28;21019;-69
2024/02/03 07:34:28;;;;;;;1.40;0.90;;;20.90;53.50;;;;;;5073438;28;20170;-69
2024/02/03 07:36:53;;;;;;;1.47;0.90;;;20.90;53.50;;;;;;5073386;28;20515;-71
2024/02/03 07:39:19;;;;;;;1.30;0.93;;;20.90;53.40;;;;;;5073221;28;20538;-70
2024/02/03 07:41:45;;;;;;;1.10;0.80;;;20.90;53.40;;;;;;5073203;28;20197;-70
2024/02/03 07:44:11;;;;;;;2.90;1.30;;;21.00;53.50;;;;;;5073269;28;20182;-71
2024/02/03 07:46:40;;;;;;;1.60;1.10;;;21.00;53.50;;;;;;5073239;28;20178;-71
2024/02/03 07:49:05;;;;;;;1.90;0.90;;;21.00;53.50;;;;;;5073379;28;20186;-70
2024/02/03 07:51:32;;;;;;;1.43;1.10;;;21.00;53.50;;;;;;5073031;28;20492;-70
2024/02/03 07:53:57;;;;;;;1.47;1.00;;;21.00;53.50;;;;;;5055027;28;20205;-70
2024/02/03 07:56:23;;;;;;;1.00;0.87;;;21.00;53.50;;;;;;5073012;28;20409;-70
2024/02/03 07:58:50;;;;;;;1.37;1.03;;;21.00;53.50;;;;;;5073110;28;20178;-71
2024/02/03 08:01:20;;;;;;;1.50;1.10;;;21.00;53.40;;;;;;5072845;28;20267;-70
2024/02/03 08:03:45;;;;;;;1.40;1.10;;;21.00;53.40;;;;;;5072908;28;20421;-70
2024/02/03 08:06:11;;;;;;;1.27;0.93;;;21.00;53.40;;;;;;5072573;28;20900;-70
2024/02/03 08:08:36;;;;;;;1.00;0.80;;;21.00;53.40;;;;;;5072779;28;20170;-71
2024/02/03 08:11:02;;;;;;;1.10;0.90;;;21.00;53.40;;;;;;5072925;28;20661;-70
2024/02/03 08:13:28;;;;;;;1.40;1.30;;;21.10;53.50;;;;;;5072673;28;20713;-71
2024/02/03 08:15:53;;;;;;;1.43;1.00;;;21.10;53.50;;;;;;5072615;28;20236;-71
2024/02/03 08:18:19;;;;;;;1.77;0.90;;;21.00;53.40;;;;;;5072560;28;20178;-70
2024/02/03 08:20:45;;;;;;;2.50;0.90;;;21.10;53.50;;;;;;5072378;28;20209;-71
2024/02/03 08:23:10;;;;;;;1.20;0.90;;;21.10;53.50;;;;;;5072504;28;20552;-68
2024/02/03 08:25:36;;;;;;;1.53;1.10;;;21.10;53.50;;;;;;5072499;28;20171;-70
2024/02/03 08:28:02;;;;;;;1.40;1.10;;;21.10;53.50;;;;;;5072349;28;20178;-70
2024/02/03 08:30:28;;;;;;;1.40;1.30;;;21.10;53.50;;;;;;5072255;28;20198;-70
2024/02/03 08:32:54;;;;;;;1.37;1.00;;;21.10;53.50;;;;;;5072327;28;20523;-71
2024/02/03 08:35:19;;;;;;;2.13;1.17;;;21.10;53.50;;;;;;5075416;28;20185;-69
2024/02/03 08:37:45;;;;;;;1.37;1.10;;;21.10;53.50;;;;;;5073864;28;20201;-71
2024/02/03 08:40:12;;;;;;;1.20;0.87;;;21.10;53.50;;;;;;5091187;28;20223;-68
2024/02/03 08:42:38;;;;;;;1.70;1.20;;;21.10;53.50;;;;;;5092288;28;20701;-69
2024/02/03 08:45:04;;;;;;;1.70;1.10;;;21.10;53.50;;;;;;5092535;28;20403;-70
2024/02/03 08:47:30;;;;;;;1.43;1.03;;;21.10;53.50;;;;;;5092195;28;20621;-70
2024/02/03 08:49:56;;;;;;;1.27;1.07;;;21.10;53.50;;;;;;5092103;28;20451;-71
2024/02/03 08:52:22;;;;;;;1.73;0.90;;;21.10;53.50;;;;;;5092374;28;20515;-71
2024/02/03 08:54:48;;;;;;;1.80;1.30;;;21.10;53.50;;;;;;5092206;28;20424;-69
2024/02/03 08:57:13;;;;;;;1.10;0.87;;;21.10;53.60;;;;;;5091934;28;20268;-70
2024/02/03 08:59:39;;;;;;;2.17;1.10;;;21.10;53.60;;;;;;5091976;28;20201;-70
2024/02/03 09:02:05;;;;;;;1.30;1.00;;;21.10;53.60;;;;;;5091931;28;20200;-70
2024/02/03 09:04:30;;;;;;;1.33;0.80;;;21.10;53.60;;;;;;5091909;28;20187;-70
2024/02/03 09:06:56;;;;;;;1.20;1.00;;;21.10;53.60;;;;;;5092096;28;20216;-69
2024/02/03 09:09:22;;;;;;;1.20;0.90;;;21.10;53.70;;;;;;5092015;28;20230;-71
2024/02/03 09:11:47;;;;;;;1.40;1.07;;;21.10;53.70;;;;;;5091770;28;20704;-69
2024/02/03 09:14:13;;;;;;;1.63;1.30;;;21.10;53.70;;;;;;5091747;28;20190;-71
2024/02/03 09:16:38;;;;;;;1.23;1.00;;;21.10;53.70;;;;;;5091774;28;20570;-71
2024/02/03 09:19:04;;;;;;;1.50;0.90;;;21.10;53.70;;;;;;5091619;28;20702;-71
2024/02/03 09:21:29;;;;;;;1.83;1.10;;;21.10;53.70;;;;;;5091520;28;20197;-70
2024/02/03 09:23:55;;;;;;;1.50;1.13;;;21.10;53.70;;;;;;5091783;28;20209;-70
2024/02/03 09:26:21;;;;;;;2.13;1.23;;;21.10;53.70;;;;;;5091529;28;20174;-71
2024/02/03 09:28:46;;;;;;;1.40;1.00;;;21.10;53.70;;;;;;5091441;28;20223;-69
2024/02/03 09:31:19;;;;;;;1.60;0.90;;;21.10;54.30;;;;;;5091425;28;20258;-70
2024/02/03 09:33:46;;;;;;;1.60;1.00;;;21.10;53.80;;;;;;5091462;28;20542;-70
2024/02/03 09:36:12;;;;;;;2.60;1.20;;;21.10;53.70;;;;;;5091424;28;20513;-72
2024/02/03 09:38:37;;;;;;;2.27;1.40;;;21.10;53.80;;;;;;5091404;28;20443;-70
2024/02/03 09:41:04;;;;;;;2.50;1.10;;;21.10;53.80;;;;;;5091181;28;20224;-70
2024/02/03 09:43:31;;;;;;;1.73;1.10;;;21.10;53.80;;;;;;5091290;28;20180;-71
2024/02/03 09:45:57;;;;;;;1.43;1.20;;;21.10;53.80;;;;;;5072920;28;20422;-69
2024/02/03 09:48:23;;;;;;;2.50;1.50;;;21.10;53.80;;;;;;5091188;28;20416;-69
2024/02/03 09:50:49;;;;;;;4.80;1.23;;;21.10;53.80;;;;;;5091044;28;20434;-70
2024/02/03 09:53:15;;;;;;;2.13;1.30;;;21.10;53.90;;;;;;5090702;28;20181;-70
2024/02/03 09:55:41;;;;;;;1.37;1.07;;;21.10;53.90;;;;;;5091259;28;20426;-70
2024/02/03 09:58:07;;;;;;;3.97;1.43;;;21.10;53.90;;;;;;5090959;28;20506;-70
2024/02/03 10:00:35;;;;;;;1.40;1.23;;;21.10;53.90;;;;;;5090745;28;20218;-68
2024/02/03 10:03:01;;;;;;;4.93;1.30;;;21.10;53.90;;;;;;5090842;28;20447;-69
2024/02/03 10:05:29;;;;;;;3.47;1.40;;;21.10;53.90;;;;;;5090892;28;20403;-69
2024/02/03 10:08:02;;;;;;;2.90;1.30;;;21.10;53.90;;;;;;5090822;28;20858;-71
2024/02/03 10:10:29;;;;;;;2.33;1.20;;;21.10;53.90;;;;;;5090708;28;20424;-70
2024/02/03 10:13:13;;;;;;;2.97;1.23;;;21.10;54.00;;;;;;5090804;28;20502;-70
2024/02/03 10:15:39;;;;;;;2.73;1.60;;;21.10;53.90;;;;;;5090973;28;20434;-70
2024/02/03 10:18:06;;;;;;;1.70;1.40;;;21.10;53.90;;;;;;5090856;28;20796;-70
2024/02/03 10:20:32;;;;;;;2.03;1.50;;;21.10;54.00;;;;;;5090966;28;20471;-69
2024/02/03 10:22:57;;;;;;;4.47;1.47;;;21.10;54.00;;;;;;5091231;28;20436;-69
2024/02/03 10:25:31;;;;;;;3.93;1.40;;;21.10;54.00;;;;;;5090820;28;21122;-69
2024/02/03 10:28:03;;;;;;;3.00;1.47;;;21.10;54.00;;;;;;5090784;28;20158;-70
2024/02/03 10:30:30;;;;;;;4.80;1.57;;;21.10;54.00;;;;;;5090556;28;20534;-69
2024/02/03 10:33:01;;;;;;;4.27;1.90;;;21.10;54.00;;;;;;5090680;28;20426;-70
2024/02/03 10:35:32;;;;;;;1.70;1.50;;;21.10;54.00;;;;;;5072642;28;20465;-70
2024/02/03 10:37:58;;;;;;;1.70;1.23;;;21.10;54.60;;;;;;5091268;28;20392;-70
2024/02/03 10:40:28;;;;;;;2.63;1.90;;;21.10;54.00;;;;;;5091303;28;20834;-70
2024/02/03 10:42:54;;;;;;;2.37;1.47;;;21.10;54.00;;;;;;5090334;28;20472;-69
2024/02/03 10:45:25;;;;;;;1.40;1.30;;;21.10;54.40;;;;;;5090338;28;20419;-68
2024/02/03 10:47:53;;;;;;;3.63;1.73;;;21.10;54.00;;;;;;5090343;28;21019;-69
2024/02/03 10:50:22;;;;;;;2.93;1.63;;;21.10;54.00;;;;;;5089899;28;20522;-71
2024/02/03 10:52:52;;;;;;;3.00;1.43;;;21.10;54.00;;;;;;5090302;28;20499;-69
2024/02/03 10:55:20;;;;;;;2.60;1.93;;;21.10;53.90;;;;;;5072085;28;20561;-69
2024/02/03 10:57:48;;;;;;;2.90;1.63;;;21.10;53.80;;;;;;5072002;28;20447;-70
2024/02/03 11:00:18;;;;;;;4.07;1.60;;;21.10;53.80;;;;;;5090195;28;20455;-73
2024/02/03 11:02:51;;;;;;;2.00;1.40;;;21.10;53.70;;;;;;5082975;28;20427;-72
2024/02/03 11:05:17;;;;;;;2.47;1.57;;;21.10;53.70;;;;;;5093457;28;20918;-72
2024/02/03 11:07:45;;;;;;;2.77;1.40;;;21.10;53.70;;;;;;5095047;28;20423;-69
2024/02/03 11:10:13;;;;;;;2.27;1.30;;;21.10;53.70;;;;;;5095660;28;20208;-71
2024/02/03 11:12:39;;;;;;;3.50;1.60;;;21.10;53.70;;;;;;5094466;28;20460;-71
2024/02/03 11:15:11;;;;;;;1.90;1.33;;;21.10;53.60;;;;;;5094559;28;20500;-70
2024/02/03 11:17:40;;;;;;;2.23;1.40;;;21.10;53.60;;;;;;5094177;28;20166;-70
2024/02/03 11:20:19;;;;;;;2.03;1.40;;;21.10;53.60;;;;;;5094595;28;20463;-69
2024/02/03 11:22:52;;;;;;;2.47;1.20;;;21.20;53.70;;;;;;5094993;28;20487;-71
2024/02/03 11:25:19;;;;;;;1.30;1.17;;;21.20;53.70;;;;;;5074833;28;20491;-69
2024/02/03 11:27:49;;;;;;;1.77;1.30;;;21.20;53.70;;;;;;5075035;28;20416;-70
2024/02/03 11:30:18;;;;;;;1.63;1.20;;;21.20;53.70;;;;;;5074756;28;20432;-69
2024/02/03 11:32:47;;;;;;;1.87;1.10;;;21.20;53.70;;;;;;5074509;28;20451;-68
2024/02/03 11:35:17;;;;;;;1.17;1.00;;;21.20;53.70;;;;;;5074740;28;20408;-69
2024/02/03 11:37:43;;;;;;;1.70;1.27;;;21.20;53.70;;;;;;5075159;28;20907;-69
2024/02/03 11:40:09;;;;;;;3.50;1.57;;;21.20;53.60;;;;;;5057322;28;20470;-69
2024/02/03 11:42:36;;;;;;;2.67;1.90;;;21.20;53.60;;;;;;5057258;28;20665;-69
2024/02/03 11:45:12;;;;;;;1.77;1.20;;;21.20;53.60;;;;;;5075012;28;20837;-70
2024/02/03 11:47:38;;;;;;;2.27;1.57;;;21.20;53.60;;;;;;5074903;28;20767;-68
2024/02/03 11:50:04;;;;;;;1.90;1.40;;;21.20;53.70;;;;;;5074410;28;20495;-69
2024/02/03 11:52:30;;;;;;;3.00;1.57;;;21.20;53.70;;;;;;5074006;28;20182;-68
2024/02/03 11:54:56;;;;;;;2.90;1.30;;;21.20;53.70;;;;;;5074269;28;20854;-69
2024/02/03 11:57:21;;;;;;;2.13;1.30;;;21.20;53.70;;;;;;5074015;28;20193;-69
2024/02/03 11:59:47;;;;;;;1.93;1.20;;;21.20;53.70;;;;;;5073860;28;20616;-69
2024/02/03 12:02:16;;;;;;;1.60;1.10;;;21.20;53.70;;;;;;5073807;28;20202;-69
2024/02/03 12:04:43;;;;;;;2.73;1.33;;;21.20;53.70;;;;;;5074106;28;20575;-69
2024/02/03 12:07:09;;;;;;;2.90;1.50;;;21.20;54.20;;;;;;5073861;28;20409;-69
2024/02/03 12:09:35;;;;;;;2.20;1.50;;;21.20;53.70;;;;;;5073915;28;20470;-69
2024/02/03 12:12:01;;;;;;;2.20;1.47;;;21.20;53.70;;;;;;5073431;28;20285;-69
2024/02/03 12:14:28;;;;;;;3.70;1.80;;;21.20;53.80;;;;;;5073248;28;20469;-69
2024/02/03 12:16:54;;;;;;;1.70;1.13;;;21.20;53.80;;;;;;5055544;28;20255;-68
2024/02/03 12:19:23;;;;;;;3.33;1.83;;;21.20;53.80;;;;;;5074196;28;21038;-70
2024/02/03 12:21:50;;;;;;;1.53;1.30;;;21.20;53.80;;;;;;5073580;28;20481;-69
2024/02/03 12:24:17;;;;;;;3.33;1.40;;;21.20;53.80;;;;;;5073872;28;20428;-69
2024/02/03 12:26:42;;;;;;;2.37;1.20;;;21.20;53.80;;;;;;5073718;28;20422;-70
2024/02/03 12:29:08;;;;;;;4.90;1.60;;;21.20;53.80;;;;;;5073254;28;20413;-69
2024/02/03 12:31:34;;;;;;;2.57;1.30;;;21.20;53.80;;;;;;5073847;28;20633;-69
2024/02/03 12:33:59;;;;;;;1.90;1.43;;;21.20;53.80;;;;;;5073273;28;20167;-69
2024/02/03 12:36:28;;;;;;;1.90;1.40;;;21.20;53.80;;;;;;5073091;28;20174;-69
2024/02/03 12:38:53;;;;;;;4.00;1.53;;;21.20;53.80;;;;;;5055580;28;20171;-69
2024/02/03 12:41:19;;;;;;;4.07;1.53;;;21.20;53.80;;;;;;5073133;28;20439;-69
2024/02/03 12:43:45;;;;;;;1.37;1.07;;;21.20;53.80;;;;;;5072933;28;20177;-69